Time;durP1;ratioP1;P1;durP2;ratioP2;P2;SDS_P1;SDS_P2;PMS_P1;PMS_P2;Temp;Humidity;BMP_temperature;BMP_pressure;BME280_temperature;BME280_humidity;BME280_pressure;Samples;Min_cycle;Max_cycle;Signal;HPM_P1;HPM_P2
2021/08/14 00:02:13;;;;;;;6.90;5.80;;;;;;;25.50;57.45;100817.50;5128950;27;20026;-62
2021/08/14 00:04:39;;;;;;;9.63;5.90;;;;;;;25.47;57.77;100820.69;5128381;27;20433;-62
2021/08/14 00:07:04;;;;;;;11.20;5.47;;;;;;;25.45;57.90;100818.16;5129863;27;20054;-62
2021/08/14 00:09:30;;;;;;;14.60;6.22;;;;;;;25.41;58.03;100807.81;5128259;27;20023;-61
2021/08/14 00:11:56;;;;;;;9.15;5.85;;;;;;;25.41;58.19;100813.31;5129908;27;20037;-62
2021/08/14 00:14:22;;;;;;;11.07;6.10;;;;;;;25.33;58.46;100806.16;5129577;27;20023;-62
2021/08/14 00:16:47;;;;;;;10.70;6.00;;;;;;;25.34;58.67;100812.50;5129680;27;20470;-62
2021/08/14 00:19:13;;;;;;;9.82;5.97;;;;;;;25.32;58.51;100817.38;5128075;27;20027;-62
2021/08/14 00:21:38;;;;;;;8.10;6.20;;;;;;;25.26;58.45;100807.22;5129326;27;20106;-64
2021/08/14 00:24:04;;;;;;;12.35;5.95;;;;;;;25.27;58.52;100814.38;5129628;27;20046;-64
2021/08/14 00:26:30;;;;;;;9.77;6.00;;;;;;;25.23;58.51;100816.75;5129567;27;20101;-64
2021/08/14 00:28:55;;;;;;;10.93;5.80;;;;;;;25.20;58.40;100810.84;5129758;27;20532;-64
2021/08/14 00:31:21;;;;;;;15.32;6.85;;;;;;;25.17;58.55;100806.63;5129271;27;20042;-64
2021/08/14 00:33:46;;;;;;;11.25;6.72;;;;;;;25.15;58.61;100813.41;5129557;27;20059;-63
2021/08/14 00:36:12;;;;;;;9.43;5.63;;;;;;;25.12;58.95;100816.59;5128000;28;20027;-64
2021/08/14 00:38:37;;;;;;;9.52;6.05;;;;;;;25.09;58.92;100811.53;5129324;27;20042;-63
2021/08/14 00:41:03;;;;;;;10.70;6.07;;;;;;;25.06;58.97;100815.56;5129460;27;20389;-64
2021/08/14 00:43:29;;;;;;;8.80;5.88;;;;;;;25.02;59.11;100816.19;5129245;27;20057;-64
2021/08/14 00:45:59;;;;;;;8.05;5.43;;;;;;;24.99;59.57;100819.38;5129572;27;20545;-64
2021/08/14 00:48:24;;;;;;;12.98;6.22;;;;;;;24.97;59.74;100814.09;5129102;27;20446;-64
2021/08/14 00:50:49;;;;;;;9.90;6.15;;;;;;;24.96;59.81;100814.31;5129598;27;20114;-63
2021/08/14 00:53:15;;;;;;;10.27;6.45;;;;;;;24.93;60.11;100820.22;5128834;27;20027;-63
2021/08/14 00:55:42;;;;;;;10.88;6.38;;;;;;;24.85;60.26;100795.78;5129244;27;20457;-63
2021/08/14 00:58:07;;;;;;;10.75;6.00;;;;;;;24.85;60.39;100815.81;5127985;27;20027;-63
2021/08/14 01:00:33;;;;;;;8.98;6.03;;;;;;;24.85;60.52;100810.31;5128904;27;20027;-64
2021/08/14 01:02:59;;;;;;;10.43;6.35;;;;;;;24.84;60.35;100816.03;5129619;27;20054;-63
2021/08/14 01:05:24;;;;;;;12.85;6.20;;;;;;;24.70;60.40;100797.91;5129011;27;20027;-64
2021/08/14 01:07:51;;;;;;;9.20;5.95;;;;;;;24.78;60.65;100811.38;5129708;27;20024;-63
2021/08/14 01:10:16;;;;;;;9.77;6.72;;;;;;;24.76;60.51;100811.59;5128917;27;20517;-64
2021/08/14 01:12:42;;;;;;;10.35;6.03;;;;;;;24.67;60.68;100801.09;5130044;27;20027;-64
2021/08/14 01:15:08;;;;;;;11.65;5.85;;;;;;;24.70;60.79;100808.88;5132905;27;20019;-63
2021/08/14 01:17:38;;;;;;;7.28;6.13;;;;;;;24.66;61.06;100807.63;5132802;27;20031;-63
2021/08/14 01:20:06;;;;;;;12.00;6.50;;;;;;;24.62;61.24;100807.16;5131409;27;20050;-64
2021/08/14 01:22:33;;;;;;;13.02;6.63;;;;;;;24.61;61.09;100807.38;5132680;27;20023;-63
2021/08/14 01:24:58;;;;;;;13.25;6.45;;;;;;;24.54;61.63;100798.31;5132877;27;20103;-63
2021/08/14 01:27:24;;;;;;;11.40;6.63;;;;;;;24.49;61.79;100804.44;5132538;27;20026;-63
2021/08/14 01:29:49;;;;;;;6.88;6.13;;;;;;;24.48;62.19;100803.59;5132759;27;20494;-63
2021/08/14 01:32:16;;;;;;;12.55;6.82;;;;;;;24.51;62.56;100815.22;5132614;27;20506;-64
2021/08/14 01:34:42;;;;;;;10.93;6.78;;;;;;;24.48;63.11;100815.63;5132373;27;20069;-63
2021/08/14 01:37:09;;;;;;;12.68;6.70;;;;;;;24.36;63.15;100798.97;5132650;27;20034;-64
2021/08/14 01:39:35;;;;;;;7.70;6.65;;;;;;;24.35;63.27;100802.78;5132330;27;20059;-62
2021/08/14 01:42:04;;;;;;;11.45;7.10;;;;;;;24.37;63.72;100811.63;5132251;27;20443;-62
2021/08/14 01:44:31;;;;;;;10.60;6.75;;;;;;;24.29;63.56;100803.63;5131948;27;20471;-62
2021/08/14 01:46:57;;;;;;;10.35;6.53;;;;;;;24.30;63.79;100802.56;5132603;27;20370;-62
2021/08/14 01:49:23;;;;;;;11.70;6.22;;;;;;;24.28;64.26;100802.78;5130821;27;20023;-61
2021/08/14 01:51:49;;;;;;;12.90;6.50;;;;;;;24.27;64.62;100809.31;5132063;27;20164;-62
2021/08/14 01:54:15;;;;;;;7.85;6.65;;;;;;;24.23;64.89;100810.81;5131762;27;20547;-61
2021/08/14 01:56:41;;;;;;;9.40;6.90;;;;;;;24.21;65.04;100812.03;5130811;27;20481;-62
2021/08/14 01:59:07;;;;;;;11.23;7.72;;;;;;;24.18;65.33;100799.63;5132204;27;20030;-62
2021/08/14 02:01:33;;;;;;;8.65;6.85;;;;;;;24.15;65.36;100800.03;5131699;27;20135;-62
2021/08/14 02:03:58;;;;;;;9.60;6.70;;;;;;;24.12;65.51;100805.13;5131916;27;20095;-61
2021/08/14 02:06:27;;;;;;;10.63;6.18;;;;;;;24.07;65.25;100800.25;5130642;27;20442;-61
2021/08/14 02:08:54;;;;;;;9.75;6.47;;;;;;;24.03;65.32;100798.13;5132120;27;20026;-61
2021/08/14 02:11:33;;;;;;;9.50;6.20;;;;;;;24.01;65.28;100800.22;5129957;27;20508;-61
2021/08/14 02:13:59;;;;;;;10.23;7.07;;;;;;;23.95;65.32;100801.91;5131664;27;20048;-62
2021/08/14 02:16:25;;;;;;;10.88;7.32;;;;;;;23.95;65.40;100799.19;5132107;27;20023;-61
2021/08/14 02:18:51;;;;;;;10.57;6.55;;;;;;;23.94;65.30;100794.75;5131842;27;20031;-62
2021/08/14 02:21:17;;;;;;;9.35;7.18;;;;;;;23.90;65.10;100796.19;5131659;27;20079;-64
2021/08/14 02:23:44;;;;;;;10.13;6.50;;;;;;;23.87;65.46;100793.88;5131184;27;20099;-61
2021/08/14 02:26:09;;;;;;;10.93;6.72;;;;;;;23.88;65.58;100792.81;5131278;27;20031;-61
2021/08/14 02:28:35;;;;;;;13.23;7.45;;;;;;;23.86;65.83;100796.84;5131330;27;20154;-61
2021/08/14 02:31:01;;;;;;;11.73;7.35;;;;;;;23.84;66.30;100794.31;5131472;27;20035;-61
2021/08/14 02:33:27;;;;;;;12.85;7.22;;;;;;;23.80;66.60;100798.50;5131226;27;20050;-61
2021/08/14 02:35:55;;;;;;;12.30;7.80;;;;;;;23.78;67.10;100802.50;5131246;27;20122;-61
2021/08/14 02:38:21;;;;;;;14.07;8.05;;;;;;;23.74;67.34;100795.75;5131433;27;20478;-62
2021/08/14 02:40:47;;;;;;;12.10;7.95;;;;;;;23.67;67.72;100787.50;5131184;27;20050;-61
2021/08/14 02:43:17;;;;;;;16.92;8.27;;;;;;;23.67;67.71;100795.72;5131250;27;20030;-61
2021/08/14 02:45:44;;;;;;;15.50;8.30;;;;;;;23.66;67.48;100802.25;5131083;27;20412;-61
2021/08/14 02:48:10;;;;;;;11.43;8.60;;;;;;;23.61;67.26;100796.59;5130836;27;20085;-62
2021/08/14 02:50:37;;;;;;;12.50;8.65;;;;;;;23.58;66.98;100799.72;5112516;27;20034;-61
2021/08/14 02:53:03;;;;;;;10.93;8.75;;;;;;;23.49;67.20;100791.91;5130802;27;20391;-62
2021/08/14 02:55:28;;;;;;;12.80;8.45;;;;;;;23.52;67.28;100806.03;5131599;27;20023;-63
2021/08/14 02:57:54;;;;;;;13.68;8.35;;;;;;;23.45;67.46;100799.69;5131115;27;20131;-64
2021/08/14 03:00:19;;;;;;;12.85;8.13;;;;;;;23.44;67.50;100806.19;5131092;27;20031;-62
2021/08/14 03:02:45;;;;;;;12.23;8.07;;;;;;;23.36;67.60;100805.53;5130934;27;20023;-61
2021/08/14 03:05:11;;;;;;;15.43;8.73;;;;;;;23.32;67.71;100802.38;5130898;27;20030;-61
2021/08/14 03:07:37;;;;;;;13.30;7.30;;;;;;;23.34;67.88;100805.75;5130905;27;20061;-61
2021/08/14 03:10:03;;;;;;;14.02;7.68;;;;;;;23.25;67.77;100795.19;5129391;27;20078;-61
2021/08/14 03:12:29;;;;;;;9.93;7.18;;;;;;;23.27;67.62;100799.41;5130700;27;20031;-61
2021/08/14 03:14:54;;;;;;;8.93;7.05;;;;;;;23.20;67.80;100812.19;5130899;27;20026;-62
2021/08/14 03:17:20;;;;;;;11.20;7.60;;;;;;;23.17;68.20;100812.59;5130616;27;20394;-61
2021/08/14 03:19:45;;;;;;;11.23;7.57;;;;;;;23.06;68.54;100799.50;5130491;27;20030;-61
2021/08/14 03:22:11;;;;;;;14.55;7.65;;;;;;;23.03;68.78;100799.91;5130431;27;20096;-62
2021/08/14 03:24:39;;;;;;;15.38;8.05;;;;;;;23.02;69.16;100808.31;5130205;27;20026;-60
2021/08/14 03:27:06;;;;;;;13.52;8.23;;;;;;;22.92;69.53;100803.22;5128970;27;20027;-62
2021/08/14 03:29:32;;;;;;;18.00;8.65;;;;;;;22.93;69.57;100804.91;5129393;27;20032;-62
2021/08/14 03:31:57;;;;;;;11.70;8.10;;;;;;;22.86;69.62;100798.53;5129885;27;20047;-61
2021/08/14 03:34:23;;;;;;;12.00;8.00;;;;;;;22.90;69.73;100809.94;5129219;27;20108;-61
2021/08/14 03:36:48;;;;;;;12.45;7.55;;;;;;;22.87;69.85;100813.06;5128502;27;20045;-62
2021/08/14 03:39:14;;;;;;;15.55;8.15;;;;;;;22.85;70.47;100809.69;5129580;27;20045;-61
2021/08/14 03:41:39;;;;;;;17.25;9.30;;;;;;;22.77;70.72;100813.47;5129410;27;20062;-62
2021/08/14 03:44:05;;;;;;;17.70;8.68;;;;;;;22.65;70.97;100801.38;5129807;27;20050;-61
2021/08/14 03:46:31;;;;;;;13.88;8.43;;;;;;;22.68;71.37;100820.13;5129598;27;20112;-61
2021/08/14 03:48:57;;;;;;;13.13;8.27;;;;;;;22.63;71.85;100819.88;5128224;27;20042;-61
2021/08/14 03:51:23;;;;;;;16.10;8.20;;;;;;;22.62;72.15;100823.66;5129074;27;20106;-61
2021/08/14 03:53:48;;;;;;;12.95;7.97;;;;;;;22.60;72.56;100825.72;5129387;27;20035;-61
2021/08/14 03:56:15;;;;;;;11.80;8.82;;;;;;;22.54;72.57;100821.09;5128025;27;20019;-62
2021/08/14 03:58:41;;;;;;;12.02;8.27;;;;;;;22.56;72.73;100827.19;5128587;27;20027;-61
2021/08/14 04:01:07;;;;;;;12.63;8.60;;;;;;;22.57;72.60;100830.78;5129491;27;20034;-60
2021/08/14 04:03:33;;;;;;;15.15;8.98;;;;;;;22.50;72.79;100825.25;5128076;27;20019;-61
2021/08/14 04:05:59;;;;;;;12.57;9.27;;;;;;;22.51;73.43;100816.03;5129342;27;20022;-62
2021/08/14 04:08:25;;;;;;;21.42;10.68;;;;;;;22.53;75.45;100826.75;5126516;27;20035;-61
2021/08/14 04:10:51;;;;;;;18.55;9.82;;;;;;;22.47;75.13;100817.41;5129880;27;20088;-61
2021/08/14 04:13:16;;;;;;;16.10;9.30;;;;;;;22.52;74.56;100828.63;5128657;27;20386;-61
2021/08/14 04:15:42;;;;;;;16.85;9.75;;;;;;;22.52;74.52;100825.03;5129964;27;20023;-60
2021/08/14 04:18:08;;;;;;;17.65;9.63;;;;;;;22.54;75.31;100826.56;5129402;27;20075;-62
2021/08/14 04:20:33;;;;;;;16.10;9.80;;;;;;;22.57;75.74;100831.59;5128945;27;20027;-61
2021/08/14 04:22:59;;;;;;;17.50;9.20;;;;;;;22.58;75.07;100836.03;5130009;27;20035;-62
2021/08/14 04:25:25;;;;;;;17.50;9.25;;;;;;;22.61;74.59;100826.59;5129217;27;20019;-63
2021/08/14 04:27:50;;;;;;;16.10;10.07;;;;;;;22.65;74.69;100828.72;5129682;28;20031;-62
2021/08/14 04:30:16;;;;;;;17.88;9.40;;;;;;;22.63;74.49;100817.13;5129792;27;20033;-63
2021/08/14 04:32:42;;;;;;;17.73;10.30;;;;;;;22.74;74.19;100830.28;5129312;28;20030;-62
2021/08/14 04:35:13;;;;;;;19.13;10.85;;;;;;;22.81;73.77;100841.22;5129349;27;20039;-62
2021/08/14 04:37:39;;;;;;;21.73;11.57;;;;;;;22.87;73.52;100844.03;5129572;27;20475;-64
2021/08/14 04:40:07;;;;;;;16.85;11.35;;;;;;;22.94;73.33;100849.53;5129580;27;20115;-62
2021/08/14 04:42:32;;;;;;;15.85;10.60;;;;;;;23.00;72.82;100837.78;5129291;27;20111;-62
2021/08/14 04:44:58;;;;;;;16.58;9.85;;;;;;;23.11;72.81;100846.25;5129360;27;20529;-62
2021/08/14 04:47:23;;;;;;;16.27;10.23;;;;;;;23.21;72.76;100846.72;5131714;27;20429;-60
2021/08/14 04:49:49;;;;;;;19.20;10.18;;;;;;;23.27;72.17;100848.69;5133528;27;20023;-60
2021/08/14 04:52:14;;;;;;;17.63;9.57;;;;;;;23.31;72.78;100843.66;5133397;27;20027;-61
2021/08/14 04:54:40;;;;;;;12.88;9.77;;;;;;;23.45;72.36;100854.47;5133312;27;20035;-61
2021/08/14 04:57:05;;;;;;;16.33;9.45;;;;;;;23.53;71.75;100848.78;5133674;27;20023;-61
2021/08/14 04:59:31;;;;;;;21.48;9.63;;;;;;;23.57;71.28;100839.09;5133149;27;20059;-61
2021/08/14 05:01:57;;;;;;;17.17;10.55;;;;;;;23.67;71.28;100846.94;5135428;27;20023;-64
2021/08/14 05:04:23;;;;;;;18.73;11.30;;;;;;;23.75;71.31;100844.84;5134508;27;20019;-64
2021/08/14 05:06:51;;;;;;;19.45;9.95;;;;;;;23.91;70.97;100849.09;5135280;27;20022;-64
2021/08/14 05:09:17;;;;;;;14.55;9.52;;;;;;;24.04;70.50;100855.50;5135197;27;20038;-64
2021/08/14 05:11:43;;;;;;;19.67;9.65;;;;;;;24.17;70.24;100851.91;5135484;27;20031;-64
2021/08/14 05:14:08;;;;;;;14.75;9.52;;;;;;;24.33;69.88;100851.50;5135216;27;20019;-64
2021/08/14 05:16:36;;;;;;;14.38;9.25;;;;;;;24.45;68.70;100852.56;5134704;27;20450;-63
2021/08/14 05:19:02;;;;;;;14.13;8.85;;;;;;;24.55;67.85;100852.97;5134446;27;20042;-64
2021/08/14 05:21:27;;;;;;;14.35;9.65;;;;;;;24.71;67.37;100857.22;5133596;27;20035;-64
2021/08/14 05:23:52;;;;;;;13.32;8.75;;;;;;;24.78;66.74;100847.06;5131780;27;20340;-64
2021/08/14 05:26:18;;;;;;;11.20;7.82;;;;;;;24.93;66.18;100847.69;5133010;27;20098;-64
2021/08/14 05:28:43;;;;;;;16.05;7.95;;;;;;;25.08;65.44;100854.59;5132702;27;20462;-64
2021/08/14 05:31:09;;;;;;;15.07;7.78;;;;;;;25.20;64.97;100866.59;5132999;27;20053;-63
2021/08/14 05:33:34;;;;;;;17.33;9.10;;;;;;;25.24;64.34;100853.31;5132736;27;20038;-63
2021/08/14 05:36:00;;;;;;;20.23;8.48;;;;;;;25.44;63.89;100865.06;5132696;27;20043;-64
2021/08/14 05:38:25;;;;;;;10.23;7.55;;;;;;;25.55;63.73;100867.13;5132424;27;20317;-64
2021/08/14 05:40:51;;;;;;;11.45;8.45;;;;;;;25.67;63.31;100876.38;5132775;27;20027;-64
2021/08/14 05:43:16;;;;;;;14.52;7.70;;;;;;;25.78;62.99;100862.78;5132443;27;20053;-65
2021/08/14 05:45:41;;;;;;;23.30;10.27;;;;;;;25.86;62.34;100853.44;5130497;27;20019;-64
2021/08/14 05:48:07;;;;;;;14.73;9.70;;;;;;;25.99;61.86;100853.41;5131688;27;20046;-64
2021/08/14 05:50:33;;;;;;;20.15;11.13;;;;;;;26.16;60.95;100860.91;5130174;27;20077;-64
2021/08/14 05:52:59;;;;;;;23.15;12.18;;;;;;;26.27;60.45;100860.16;5131550;27;20035;-64
2021/08/14 05:55:25;;;;;;;20.25;12.18;;;;;;;26.44;59.86;100860.47;5130999;27;20023;-65
2021/08/14 05:57:53;;;;;;;18.63;11.52;;;;;;;26.58;59.54;100858.41;5129943;27;20035;-64
2021/08/14 06:00:19;;;;;;;18.38;9.35;;;;;;;26.69;59.16;100850.28;5130258;27;20030;-65
2021/08/14 06:02:45;;;;;;;16.55;9.30;;;;;;;26.90;58.81;100855.41;5130409;27;20027;-66
2021/08/14 06:05:10;;;;;;;17.50;10.05;;;;;;;27.07;58.22;100863.88;5129920;27;20421;-64
2021/08/14 06:07:36;;;;;;;17.13;10.52;;;;;;;27.20;58.06;100858.22;5131515;27;20031;-65
2021/08/14 06:10:05;;;;;;;15.95;8.70;;;;;;;27.37;57.23;100864.88;5131856;27;20063;-65
2021/08/14 06:12:31;;;;;;;16.83;7.55;;;;;;;27.55;56.52;100864.81;5129707;27;20027;-63
2021/08/14 06:14:56;;;;;;;13.43;7.43;;;;;;;27.73;55.97;100865.63;5128628;27;20489;-62
2021/08/14 06:17:22;;;;;;;11.23;7.18;;;;;;;27.88;55.47;100868.00;5129715;27;20118;-62
2021/08/14 06:19:47;;;;;;;13.00;6.72;;;;;;;28.03;54.64;100862.91;5129991;27;20015;-61
2021/08/14 06:22:13;;;;;;;19.65;7.43;;;;;;;28.21;53.93;100868.38;5130101;27;20028;-61
2021/08/14 06:24:38;;;;;;;13.40;6.75;;;;;;;28.36;53.56;100869.59;5130271;27;20019;-61
2021/08/14 06:27:04;;;;;;;15.80;6.85;;;;;;;28.51;53.31;100864.47;5130448;27;20037;-62
2021/08/14 06:29:30;;;;;;;9.27;7.40;;;;;;;28.66;52.28;100866.78;5128729;27;20030;-61
2021/08/14 06:31:55;;;;;;;10.55;6.70;;;;;;;28.82;51.72;100871.59;5128608;27;20488;-62
2021/08/14 06:34:21;;;;;;;10.70;6.82;;;;;;;28.96;51.55;100863.91;5129674;27;20080;-62
2021/08/14 06:36:46;;;;;;;14.00;7.00;;;;;;;29.07;50.87;100869.47;5129721;27;20466;-62
2021/08/14 06:39:11;;;;;;;17.77;6.80;;;;;;;29.24;50.56;100866.81;5129822;27;20045;-62
2021/08/14 06:41:37;;;;;;;15.70;7.10;;;;;;;29.35;50.50;100865.94;5128563;27;20027;-62
2021/08/14 06:44:03;;;;;;;14.00;7.25;;;;;;;29.44;50.00;100870.00;5130924;27;20015;-62
2021/08/14 06:46:28;;;;;;;10.00;6.78;;;;;;;29.55;49.89;100860.81;5130221;27;20027;-62
2021/08/14 06:48:54;;;;;;;14.38;6.35;;;;;;;29.72;49.20;100875.59;5130107;27;20167;-63
2021/08/14 06:51:19;;;;;;;11.02;6.05;;;;;;;29.85;48.55;100867.00;5131137;27;20023;-62
2021/08/14 06:53:44;;;;;;;11.48;6.57;;;;;;;29.96;48.40;100869.72;5131335;27;20042;-62
2021/08/14 06:56:10;;;;;;;11.18;6.15;;;;;;;30.11;47.67;100866.41;5131315;27;20027;-62
2021/08/14 06:58:36;;;;;;;9.48;6.57;;;;;;;30.21;47.16;100866.63;5131389;27;20118;-63
2021/08/14 07:01:02;;;;;;;14.93;6.85;;;;;;;30.32;47.05;100874.84;5129333;27;20095;-63
2021/08/14 07:03:27;;;;;;;10.13;6.05;;;;;;;30.39;46.86;100864.47;5130878;27;20035;-62
2021/08/14 07:05:52;;;;;;;12.65;5.90;;;;;;;30.52;46.48;100874.34;5129357;27;20027;-62
2021/08/14 07:08:18;;;;;;;15.05;6.53;;;;;;;30.46;46.30;100848.50;5130922;27;20023;-62
2021/08/14 07:10:43;;;;;;;11.35;6.10;;;;;;;30.65;46.39;100859.34;5129719;27;20027;-62
2021/08/14 07:13:09;;;;;;;8.77;5.72;;;;;;;30.77;45.93;100869.28;5130786;27;20083;-62
2021/08/14 07:15:34;;;;;;;11.50;5.70;;;;;;;30.82;45.55;100862.97;5131078;27;20024;-62
2021/08/14 07:18:00;;;;;;;12.00;5.65;;;;;;;30.92;45.74;100869.50;5129694;27;20046;-62
2021/08/14 07:20:26;;;;;;;10.38;5.95;;;;;;;31.04;45.66;100861.91;5129743;27;20019;-63
2021/08/14 07:22:51;;;;;;;10.38;5.90;;;;;;;31.10;45.25;100854.50;5129632;27;20102;-62
2021/08/14 07:25:17;;;;;;;13.75;6.13;;;;;;;31.24;45.42;100861.38;5129116;27;20034;-63
2021/08/14 07:27:42;;;;;;;13.15;6.20;;;;;;;31.41;44.99;100870.50;5128137;27;20482;-63
2021/08/14 07:30:09;;;;;;;11.65;5.93;;;;;;;31.57;44.56;100873.22;5129533;27;20471;-62
2021/08/14 07:32:35;;;;;;;12.70;6.15;;;;;;;31.72;44.17;100870.63;5128296;27;20485;-62
2021/08/14 07:35:01;;;;;;;17.10;6.47;;;;;;;31.83;43.64;100860.50;5128565;27;20042;-63
2021/08/14 07:37:28;;;;;;;8.38;5.35;;;;;;;32.00;43.51;100862.09;5127965;27;20041;-63
2021/08/14 07:39:54;;;;;;;15.57;6.18;;;;;;;32.15;42.95;100865.00;5140837;27;20030;-63
2021/08/14 07:42:20;;;;;;;13.82;6.50;;;;;;;32.24;42.79;100857.88;5127748;27;20023;-64
2021/08/14 07:44:46;;;;;;;10.65;6.68;;;;;;;32.36;42.47;100860.50;5128622;27;20523;-64
2021/08/14 07:47:11;;;;;;;20.77;6.45;;;;;;;32.45;42.37;100861.72;5125709;27;20486;-64
2021/08/14 07:49:37;;;;;;;10.02;5.75;;;;;;;32.56;42.31;100863.47;5127095;27;20077;-63
2021/08/14 07:52:02;;;;;;;10.63;5.85;;;;;;;32.66;42.10;100860.78;5128603;27;20015;-63
2021/08/14 07:54:28;;;;;;;13.75;6.05;;;;;;;32.75;41.85;100858.34;5128364;27;20023;-63
2021/08/14 07:56:56;;;;;;;8.00;5.97;;;;;;;32.88;41.36;100867.06;5128176;27;20123;-63
2021/08/14 07:59:22;;;;;;;9.40;5.53;;;;;;;32.97;41.10;100859.06;5129127;27;20122;-63
2021/08/14 08:01:47;;;;;;;8.43;5.40;;;;;;;33.16;40.73;100871.44;5128179;27;20122;-63
2021/08/14 08:04:12;;;;;;;13.07;6.05;;;;;;;33.30;39.74;100861.50;5129894;27;20019;-63
2021/08/14 08:06:38;;;;;;;10.20;5.20;;;;;;;33.44;40.02;100858.00;5129736;27;20023;-63
2021/08/14 08:09:03;;;;;;;10.57;5.90;;;;;;;33.52;39.53;100849.13;5130173;27;20034;-62
2021/08/14 08:11:29;;;;;;;5.57;4.60;;;;;;;33.68;38.77;100852.78;5129300;27;20031;-63
2021/08/14 08:13:54;;;;;;;5.80;5.20;;;;;;;33.80;38.35;100851.44;5129652;27;20030;-63
2021/08/14 08:16:20;;;;;;;5.28;4.70;;;;;;;33.93;38.30;100850.97;5129646;27;20509;-63
2021/08/14 08:18:45;;;;;;;6.30;4.93;;;;;;;34.10;38.32;100856.25;5129489;27;20288;-63
2021/08/14 08:21:11;;;;;;;7.72;5.13;;;;;;;34.21;38.09;100849.63;5129362;27;20027;-63
2021/08/14 08:23:36;;;;;;;7.78;4.70;;;;;;;34.37;37.61;100845.75;5129544;27;20027;-63
2021/08/14 08:26:02;;;;;;;7.00;5.13;;;;;;;34.43;36.97;100839.06;5129990;27;20041;-63
2021/08/14 08:28:27;;;;;;;9.23;5.13;;;;;;;34.59;36.91;100846.28;5129381;27;20363;-63
2021/08/14 08:30:53;;;;;;;8.48;5.03;;;;;;;34.69;36.75;100846.31;5129424;27;20038;-63
2021/08/14 08:33:18;;;;;;;6.65;5.05;;;;;;;34.78;36.33;100839.03;5129552;27;20027;-63
2021/08/14 08:35:43;;;;;;;10.95;5.25;;;;;;;34.88;35.88;100850.19;5128987;27;20045;-63
2021/08/14 08:38:09;;;;;;;7.63;4.60;;;;;;;34.97;35.49;100848.50;5128156;28;20046;-64
2021/08/14 08:40:39;;;;;;;8.93;4.82;;;;;;;35.07;35.55;100844.88;5129525;27;20898;-63
2021/08/14 08:43:05;;;;;;;10.25;5.20;;;;;;;35.17;35.28;100840.09;5129803;27;20085;-63
2021/08/14 08:45:31;;;;;;;10.75;4.78;;;;;;;35.20;35.26;100833.94;5129193;27;20027;-63
2021/08/14 08:47:57;;;;;;;8.63;5.00;;;;;;;35.26;34.89;100831.97;5129431;27;20122;-64
2021/08/14 08:50:27;;;;;;;9.60;4.93;;;;;;;35.37;34.58;100839.22;5129034;27;20015;-64
2021/08/14 08:52:53;;;;;;;9.75;5.40;;;;;;;35.38;34.42;100824.13;5127920;28;20026;-64
2021/08/14 08:55:21;;;;;;;9.38;4.63;;;;;;;35.46;33.74;100832.75;5127879;28;20019;-64
2021/08/14 08:57:47;;;;;;;6.38;4.75;;;;;;;35.48;32.79;100833.31;5127336;28;20015;-64
2021/08/14 09:00:15;;;;;;;11.35;4.70;;;;;;;35.53;32.10;100830.47;5129221;27;20091;-64
2021/08/14 09:02:42;;;;;;;8.48;4.97;;;;;;;35.57;32.51;100830.75;5129000;27;20023;-64
2021/08/14 09:05:43;;;;;;;10.93;4.40;;;;;;;35.60;31.88;100819.88;5128102;28;20030;-63
2021/08/14 09:08:10;;;;;;;9.10;4.47;;;;;;;35.66;32.05;100827.06;5129052;27;20031;-64
2021/08/14 09:10:36;;;;;;;7.30;4.50;;;;;;;35.65;31.40;100813.41;5129380;27;20064;-64
2021/08/14 09:13:21;;;;;;;9.27;4.78;;;;;;;35.75;31.49;100825.34;5129428;27;20035;-64
2021/08/14 09:15:47;;;;;;;7.88;4.05;;;;;;;35.77;31.18;100811.94;5129070;27;20179;-64
2021/08/14 09:18:14;;;;;;;6.75;4.25;;;;;;;35.84;31.64;100817.22;5129305;27;20016;-64
2021/08/14 09:20:54;;;;;;;8.57;4.85;;;;;;;35.89;31.80;100803.25;5128602;27;20068;-64
2021/08/14 09:23:24;;;;;;;8.23;5.47;;;;;;;35.97;31.78;100811.84;5129517;27;20482;-65
2021/08/14 09:25:57;;;;;;;10.57;5.38;;;;;;;36.01;31.65;100810.13;5127660;28;20019;-64
2021/08/14 09:28:38;;;;;;;10.43;4.80;;;;;;;36.05;31.53;100808.44;5128964;27;20062;-64
2021/08/14 09:31:06;;;;;;;6.63;5.45;;;;;;;36.09;31.76;100809.53;5129320;27;20032;-64
2021/08/14 09:33:37;;;;;;;7.38;4.60;;;;;;;36.13;31.64;100799.44;5129327;27;20021;-65
2021/08/14 09:36:05;;;;;;;7.07;5.05;;;;;;;36.14;31.58;100798.28;5132750;27;20047;-64
2021/08/14 09:38:38;;;;;;;6.90;4.95;;;;;;;36.22;31.40;100794.03;5132791;27;20019;-65
2021/08/14 09:41:07;;;;;;;;;;;;;;;36.19;30.79;100794.63;5133406;27;20031;-64
2021/08/14 09:43:35;;;;;;;8.00;4.88;;;;;;;36.23;30.90;100788.16;5132453;27;19963;-65
2021/08/14 09:46:01;;;;;;;6.72;5.18;;;;;;;36.26;31.25;100796.00;5133327;27;20015;-64
2021/08/14 09:48:26;;;;;;;10.85;4.75;;;;;;;36.24;31.28;100778.66;5132467;27;20031;-64
2021/08/14 09:50:52;;;;;;;10.68;4.75;;;;;;;36.23;31.33;100782.56;5132674;27;20054;-65
2021/08/14 09:53:23;;;;;;;9.40;4.88;;;;;;;36.28;31.45;100778.94;5130975;27;20054;-64
2021/08/14 09:56:03;;;;;;;11.93;5.13;;;;;;;36.31;31.43;100772.78;5132605;27;20023;-65
2021/08/14 09:58:29;;;;;;;9.45;5.28;;;;;;;36.27;31.67;100766.91;5132143;27;20039;-65
2021/08/14 10:00:56;;;;;;;8.90;4.10;;;;;;;36.24;31.47;100767.47;5132564;27;20076;-63
2021/08/14 10:03:22;;;;;;;10.75;5.22;;;;;;;36.18;30.98;100759.44;5132192;27;20027;-63
2021/08/14 10:05:48;;;;;;;7.45;4.78;;;;;;;36.15;30.94;100768.41;5131058;27;20045;-64
2021/08/14 10:08:14;;;;;;;10.05;4.50;;;;;;;36.10;31.24;100766.47;5132315;27;20470;-64
2021/08/14 10:10:40;;;;;;;9.15;4.85;;;;;;;36.08;31.32;100763.13;5130587;27;20083;-64
2021/08/14 10:13:05;;;;;;;10.45;5.22;;;;;;;36.07;31.38;100766.22;5132325;27;20023;-64
2021/08/14 10:15:31;;;;;;;9.88;4.57;;;;;;;35.97;31.29;100753.19;5131568;27;20092;-64
2021/08/14 10:17:57;;;;;;;4.85;4.25;;;;;;;36.05;30.83;100760.94;5130743;27;20019;-64
2021/08/14 10:20:24;;;;;;;8.70;4.88;;;;;;;36.05;30.59;100758.16;5130402;27;20039;-65
2021/08/14 10:23:02;;;;;;;10.00;4.63;;;;;;;36.06;30.63;100761.75;5130403;27;20543;-64
2021/08/14 10:25:28;;;;;;;10.05;4.20;;;;;;;36.07;29.88;100743.88;5131651;27;20015;-64
2021/08/14 10:27:59;;;;;;;6.82;4.43;;;;;;;36.04;29.79;100753.69;5132112;27;20525;-64
2021/08/14 10:30:37;;;;;;;8.13;4.35;;;;;;;36.02;29.83;100752.31;5131784;27;20039;-64
2021/08/14 10:33:03;;;;;;;6.30;4.53;;;;;;;36.02;29.81;100741.97;5131753;27;20019;-64
2021/08/14 10:35:28;;;;;;;6.22;4.40;;;;;;;36.02;29.99;100755.94;5130904;27;20035;-64
2021/08/14 10:37:54;;;;;;;6.18;3.70;;;;;;;36.02;29.77;100747.56;5131422;27;20048;-64
2021/08/14 10:40:20;;;;;;;4.57;3.60;;;;;;;36.01;29.53;100737.50;5131736;27;20075;-64
2021/08/14 10:42:58;;;;;;;8.65;4.57;;;;;;;36.01;29.81;100740.28;5131294;27;20027;-64
2021/08/14 10:45:35;;;;;;;7.35;4.18;;;;;;;36.00;29.92;100729.41;5131248;27;20044;-64
2021/08/14 10:48:05;;;;;;;6.88;3.90;;;;;;;35.98;29.80;100728.88;5131584;27;20023;-64
2021/08/14 10:50:31;;;;;;;6.00;4.40;;;;;;;35.95;29.93;100718.28;5131019;27;20398;-64
2021/08/14 10:53:11;;;;;;;10.27;4.63;;;;;;;35.95;29.93;100727.47;5131350;27;20026;-64
2021/08/14 10:55:41;;;;;;;7.68;4.72;;;;;;;35.94;30.45;100711.84;5130072;27;20068;-64
2021/08/14 10:58:30;;;;;;;5.80;4.05;;;;;;;36.00;30.55;100715.44;5129932;27;20038;-64
2021/08/14 11:01:04;;;;;;;8.48;4.03;;;;;;;36.06;30.59;100714.28;5129800;27;20042;-64
2021/08/14 11:03:35;;;;;;;5.97;4.47;;;;;;;36.04;30.70;100708.97;5129297;27;20055;-64
2021/08/14 11:06:29;;;;;;;6.13;4.45;;;;;;;36.06;30.79;100709.53;5131082;27;20031;-64
2021/08/14 11:09:16;;;;;;;4.72;4.20;;;;;;;36.00;30.85;100701.47;5130754;27;20015;-64
2021/08/14 11:11:58;;;;;;;5.50;4.15;;;;;;;35.94;30.94;100688.66;5131012;27;20403;-64
2021/08/14 11:14:45;;;;;;;8.27;4.47;;;;;;;35.91;30.89;100695.69;5130756;27;20027;-64
2021/08/14 11:17:12;;;;;;;5.05;3.95;;;;;;;35.88;30.87;100692.66;5131271;27;20156;-64
2021/08/14 11:20:24;;;;;;;8.43;4.60;;;;;;;35.86;30.95;100692.94;5130678;27;20431;-63